EJU32JG LFPG-EDDB
Flight info
| Callsign | EJU32JG |
|---|---|
| Flight time | N/A |
| Altitude | 35000 |
| Route | RANUX DCT VALEK/N0433F370 DCT LIPNI UN858 LIMGO DCT BITBU Z140 ODVUX DCT MASEK T278 KLF KLF1L |
| Aircraft | A20N/M-SDE2E3FGHIRWXY/LB1 |
Departure
| Time | 2026-04-30 07:33 |
|---|---|
| Airport | Charles de Gaulle International Airport (LFPG) |
Arrival
| Time | N/A |
|---|---|
| Airport | Berlin Brandenburg Airport (EDDB) |
| Time | Latitude | Longitude | Altitude | Speed | Heading |
|---|---|---|---|---|---|
| 2026-04-30 06:58 | 49.00177 | 2.56366 | 333 ft | 0 kts | 341° |
| 2026-04-30 07:22 | 49.00148 | 2.56381 | 333 ft | 2 kts | 341° |
| 2026-04-30 07:22 | 49.00132 | 2.56390 | 333 ft | 2 kts | 341° |
| 2026-04-30 07:22 | 49.00120 | 2.56396 | 333 ft | 1 kts | 341° |
| 2026-04-30 07:23 | 49.00106 | 2.56410 | 332 ft | 2 kts | 298° |
| 2026-04-30 07:23 | 49.00102 | 2.56428 | 332 ft | 0 kts | 269° |
| 2026-04-30 07:23 | 49.00103 | 2.56440 | 332 ft | 1 kts | 265° |
| 2026-04-30 07:27 | 49.00103 | 2.56429 | 332 ft | 2 kts | 265° |
| 2026-04-30 07:27 | 49.00101 | 2.56396 | 332 ft | 4 kts | 265° |
| 2026-04-30 07:28 | 49.00098 | 2.56342 | 332 ft | 5 kts | 265° |
| 2026-04-30 07:28 | 49.00093 | 2.56264 | 332 ft | 7 kts | 266° |
| 2026-04-30 07:28 | 49.00089 | 2.56171 | 332 ft | 9 kts | 266° |
| 2026-04-30 07:28 | 49.00084 | 2.56062 | 332 ft | 10 kts | 266° |
| 2026-04-30 07:29 | 49.00078 | 2.55941 | 333 ft | 10 kts | 266° |
| 2026-04-30 07:29 | 49.00073 | 2.55817 | 333 ft | 12 kts | 269° |
| 2026-04-30 07:29 | 49.00069 | 2.55678 | 333 ft | 13 kts | 257° |
| 2026-04-30 07:29 | 49.00020 | 2.55557 | 333 ft | 10 kts | 225° |
| 2026-04-30 07:30 | 48.99863 | 2.55631 | 331 ft | 14 kts | 126° |
| 2026-04-30 07:30 | 48.99829 | 2.55755 | 330 ft | 11 kts | 110° |
| 2026-04-30 07:30 | 48.99781 | 2.55806 | 330 ft | 7 kts | 176° |
| 2026-04-30 07:31 | 48.99726 | 2.55811 | 330 ft | 8 kts | 176° |
| 2026-04-30 07:31 | 48.99690 | 2.55816 | 330 ft | 3 kts | 175° |
| 2026-04-30 07:31 | 48.99663 | 2.55820 | 330 ft | 4 kts | 175° |
| 2026-04-30 07:31 | 48.99623 | 2.55828 | 329 ft | 6 kts | 162° |
| 2026-04-30 07:32 | 48.99602 | 2.55896 | 329 ft | 8 kts | 87° |
| 2026-04-30 07:32 | 48.99608 | 2.56047 | 329 ft | 36 kts | 86° |
| 2026-04-30 07:32 | 48.99650 | 2.56832 | 327 ft | 107 kts | 86° |
| 2026-04-30 07:32 | 48.99726 | 2.58263 | 333 ft | 161 kts | 86° |
| 2026-04-30 07:33 | 48.99814 | 2.59983 | 896 ft | 165 kts | 87° |
| 2026-04-30 07:33 | 48.99911 | 2.61663 | 1828 ft | 157 kts | 88° |
| 2026-04-30 07:33 | 48.99999 | 2.63243 | 2576 ft | 157 kts | 89° |
| 2026-04-30 07:33 | 49.00088 | 2.65002 | 3066 ft | 174 kts | 89° |
| 2026-04-30 07:34 | 49.00187 | 2.66956 | 3493 ft | 195 kts | 89° |
| 2026-04-30 07:34 | 49.00304 | 2.69267 | 4022 ft | 216 kts | 88° |
| 2026-04-30 07:34 | 49.00425 | 2.71612 | 4558 ft | 234 kts | 88° |
| 2026-04-30 07:34 | 49.00559 | 2.74205 | 5231 ft | 247 kts | 88° |
| 2026-04-30 07:35 | 49.00697 | 2.76849 | 6074 ft | 252 kts | 87° |
| 2026-04-30 07:35 | 49.00845 | 2.79685 | 6921 ft | 258 kts | 87° |
| 2026-04-30 07:35 | 49.00996 | 2.82567 | 7806 ft | 262 kts | 87° |
| 2026-04-30 07:35 | 49.01140 | 2.85373 | 8639 ft | 266 kts | 87° |
| 2026-04-30 07:36 | 49.01287 | 2.88234 | 9468 ft | 270 kts | 87° |
| 2026-04-30 07:36 | 49.01435 | 2.91155 | 10269 ft | 273 kts | 87° |
| 2026-04-30 07:36 | 49.01603 | 2.94095 | 10877 ft | 284 kts | 84° |
| 2026-04-30 07:36 | 49.01930 | 2.97357 | 11301 ft | 302 kts | 81° |
| 2026-04-30 07:37 | 49.02331 | 3.00777 | 11941 ft | 311 kts | 81° |
| 2026-04-30 07:37 | 49.02756 | 3.04352 | 12769 ft | 314 kts | 81° |
| 2026-04-30 07:37 | 49.03178 | 3.07916 | 13546 ft | 317 kts | 81° |
| 2026-04-30 07:37 | 49.03585 | 3.11380 | 14273 ft | 321 kts | 81° |
| 2026-04-30 07:38 | 49.03986 | 3.14814 | 14986 ft | 324 kts | 81° |
| 2026-04-30 07:38 | 49.04387 | 3.18254 | 15681 ft | 327 kts | 81° |
| 2026-04-30 07:38 | 49.04786 | 3.21684 | 16363 ft | 329 kts | 81° |
| 2026-04-30 07:38 | 49.05191 | 3.25170 | 17032 ft | 332 kts | 81° |
| 2026-04-30 07:39 | 49.05615 | 3.28834 | 17726 ft | 334 kts | 81° |
| 2026-04-30 07:39 | 49.06021 | 3.32361 | 18371 ft | 336 kts | 81° |
| 2026-04-30 07:39 | 49.06422 | 3.35846 | 18977 ft | 338 kts | 81° |
| 2026-04-30 07:39 | 49.06833 | 3.39427 | 19581 ft | 341 kts | 81° |
| 2026-04-30 07:40 | 49.07243 | 3.43018 | 20160 ft | 344 kts | 81° |
| 2026-04-30 07:40 | 49.07659 | 3.46688 | 20605 ft | 350 kts | 81° |
| 2026-04-30 07:40 | 49.08074 | 3.50347 | 21112 ft | 354 kts | 81° |
| 2026-04-30 07:40 | 49.08488 | 3.54062 | 21640 ft | 356 kts | 82° |
| 2026-04-30 07:41 | 49.08794 | 3.57823 | 22192 ft | 358 kts | 84° |
| 2026-04-30 07:41 | 49.09052 | 3.61552 | 22712 ft | 360 kts | 84° |
| 2026-04-30 07:41 | 49.09311 | 3.65374 | 23203 ft | 363 kts | 85° |
| 2026-04-30 07:41 | 49.09571 | 3.69235 | 23718 ft | 365 kts | 85° |
| 2026-04-30 07:42 | 49.09829 | 3.73084 | 24229 ft | 366 kts | 85° |
| 2026-04-30 07:42 | 49.10100 | 3.77147 | 24760 ft | 368 kts | 84° |
| 2026-04-30 07:42 | 49.10383 | 3.81385 | 25295 ft | 370 kts | 85° |
| 2026-04-30 07:42 | 49.10641 | 3.85308 | 25753 ft | 372 kts | 84° |
| 2026-04-30 07:43 | 49.10898 | 3.89208 | 26198 ft | 374 kts | 85° |
| 2026-04-30 07:43 | 49.11160 | 3.93220 | 26636 ft | 376 kts | 85° |
| 2026-04-30 07:43 | 49.11436 | 3.97472 | 27099 ft | 377 kts | 85° |
| 2026-04-30 07:43 | 49.11702 | 4.01593 | 27505 ft | 380 kts | 85° |
| 2026-04-30 07:44 | 49.11962 | 4.05617 | 27858 ft | 382 kts | 85° |
| 2026-04-30 07:44 | 49.12221 | 4.09670 | 28230 ft | 384 kts | 85° |
| 2026-04-30 07:44 | 49.12479 | 4.13718 | 28589 ft | 386 kts | 85° |
| 2026-04-30 07:44 | 49.12735 | 4.17777 | 28962 ft | 387 kts | 85° |
| 2026-04-30 07:45 | 49.12990 | 4.21854 | 29300 ft | 389 kts | 85° |
| 2026-04-30 07:45 | 49.13248 | 4.25967 | 29637 ft | 391 kts | 84° |
| 2026-04-30 07:45 | 49.13601 | 4.30056 | 29938 ft | 393 kts | 81° |
| 2026-04-30 07:45 | 49.14110 | 4.34118 | 30328 ft | 393 kts | 78° |
| 2026-04-30 07:46 | 49.14779 | 4.38170 | 30766 ft | 392 kts | 75° |
| 2026-04-30 07:46 | 49.15593 | 4.42122 | 31179 ft | 391 kts | 72° |
| 2026-04-30 07:46 | 49.16548 | 4.45978 | 31558 ft | 391 kts | 69° |
| 2026-04-30 07:46 | 49.17570 | 4.49784 | 31899 ft | 391 kts | 69° |
| 2026-04-30 07:47 | 49.18617 | 4.53650 | 32244 ft | 391 kts | 69° |
| 2026-04-30 07:47 | 49.19649 | 4.57465 | 32573 ft | 391 kts | 69° |
| 2026-04-30 07:47 | 49.20684 | 4.61293 | 32897 ft | 390 kts | 69° |
| 2026-04-30 07:47 | 49.21714 | 4.65105 | 33189 ft | 390 kts | 69° |
| 2026-04-30 07:48 | 49.22737 | 4.68905 | 33510 ft | 390 kts | 69° |
| 2026-04-30 07:48 | 49.23764 | 4.72726 | 33815 ft | 389 kts | 69° |
| 2026-04-30 07:48 | 49.24791 | 4.76550 | 34112 ft | 389 kts | 69° |
| 2026-04-30 07:48 | 49.25815 | 4.80367 | 34376 ft | 389 kts | 69° |
| 2026-04-30 07:49 | 49.26836 | 4.84180 | 34666 ft | 389 kts | 69° |
| 2026-04-30 07:49 | 49.27855 | 4.87989 | 34902 ft | 389 kts | 69° |
| 2026-04-30 07:49 | 49.28874 | 4.91812 | 35102 ft | 389 kts | 69° |
| 2026-04-30 07:49 | 49.29894 | 4.95639 | 35290 ft | 389 kts | 69° |
| 2026-04-30 07:50 | 49.30911 | 4.99469 | 35461 ft | 390 kts | 69° |
| 2026-04-30 07:50 | 49.31920 | 5.03270 | 35618 ft | 391 kts | 69° |
| 2026-04-30 07:50 | 49.32944 | 5.07136 | 35770 ft | 392 kts | 69° |
| 2026-04-30 07:50 | 49.33967 | 5.11003 | 35900 ft | 394 kts | 69° |
| 2026-04-30 07:51 | 49.34990 | 5.14874 | 36066 ft | 394 kts | 69° |
| 2026-04-30 07:51 | 49.36022 | 5.18788 | 36207 ft | 395 kts | 69° |
| 2026-04-30 07:51 | 49.37048 | 5.22686 | 36324 ft | 396 kts | 68° |
| 2026-04-30 07:51 | 49.38067 | 5.26565 | 36452 ft | 397 kts | 68° |
| 2026-04-30 07:52 | 49.39099 | 5.30502 | 36576 ft | 398 kts | 68° |
| 2026-04-30 07:52 | 49.40124 | 5.34413 | 36693 ft | 399 kts | 68° |
| 2026-04-30 07:52 | 49.41152 | 5.38344 | 36852 ft | 399 kts | 68° |
| 2026-04-30 07:52 | 49.42176 | 5.42272 | 37013 ft | 399 kts | 68° |
| 2026-04-30 07:53 | 49.43206 | 5.46223 | 37144 ft | 400 kts | 68° |
| 2026-04-30 07:53 | 49.44239 | 5.50195 | 37248 ft | 402 kts | 68° |
| 2026-04-30 07:53 | 49.45267 | 5.54154 | 37263 ft | 402 kts | 68° |
| 2026-04-30 07:54 | 49.47332 | 5.62125 | 37272 ft | 401 kts | 68° |
| 2026-04-30 07:54 | 49.49500 | 5.70533 | 37277 ft | 401 kts | 69° |
| 2026-04-30 07:55 | 49.51534 | 5.78456 | 37285 ft | 401 kts | 69° |
| 2026-04-30 07:55 | 49.53469 | 5.86437 | 37283 ft | 400 kts | 69° |
| 2026-04-30 07:56 | 49.55438 | 5.94418 | 37296 ft | 399 kts | 69° |
| 2026-04-30 07:56 | 49.57402 | 6.02363 | 37293 ft | 399 kts | 69° |
| 2026-04-30 07:57 | 49.59355 | 6.10302 | 37301 ft | 398 kts | 69° |
| 2026-04-30 07:57 | 49.61417 | 6.18201 | 37301 ft | 398 kts | 63° |
| 2026-04-30 07:58 | 49.64404 | 6.25329 | 37307 ft | 398 kts | 51° |
| 2026-04-30 07:58 | 49.68359 | 6.31251 | 37310 ft | 401 kts | 39° |
| 2026-04-30 07:59 | 49.73092 | 6.35761 | 37321 ft | 403 kts | 30° |
| 2026-04-30 07:59 | 49.78060 | 6.39762 | 37320 ft | 402 kts | 30° |
| 2026-04-30 08:00 | 49.85474 | 6.45732 | 37327 ft | 401 kts | 30° |
| 2026-04-30 08:00 | 49.90431 | 6.49748 | 37330 ft | 401 kts | 31° |
| 2026-04-30 08:01 | 49.95161 | 6.54182 | 37335 ft | 399 kts | 37° |
| 2026-04-30 08:01 | 49.99518 | 6.59408 | 37338 ft | 396 kts | 43° |
| 2026-04-30 08:02 | 50.05118 | 6.68738 | 37344 ft | 393 kts | 57° |
| 2026-04-30 08:03 | 50.07664 | 6.76169 | 37339 ft | 392 kts | 68° |
| 2026-04-30 08:03 | 50.09352 | 6.84256 | 37346 ft | 393 kts | 72° |
| 2026-04-30 08:04 | 50.10884 | 6.92366 | 37342 ft | 392 kts | 72° |
| 2026-04-30 08:04 | 50.12549 | 7.00374 | 37347 ft | 391 kts | 69° |
| 2026-04-30 08:05 | 50.14476 | 7.08228 | 37352 ft | 390 kts | 68° |
| 2026-04-30 08:05 | 50.16416 | 7.16113 | 37355 ft | 390 kts | 68° |
| 2026-04-30 08:06 | 50.18341 | 7.23979 | 37364 ft | 390 kts | 68° |
| 2026-04-30 08:06 | 50.20271 | 7.31884 | 37359 ft | 390 kts | 68° |
| 2026-04-30 08:07 | 50.22178 | 7.39735 | 37370 ft | 390 kts | 68° |
| 2026-04-30 08:07 | 50.24087 | 7.47616 | 37366 ft | 389 kts | 68° |
| 2026-04-30 08:08 | 50.25996 | 7.55533 | 37365 ft | 389 kts | 68° |
| 2026-04-30 08:08 | 50.27888 | 7.63412 | 37370 ft | 389 kts | 68° |
| 2026-04-30 08:09 | 50.29781 | 7.71313 | 37377 ft | 390 kts | 68° |
| 2026-04-30 08:09 | 50.31665 | 7.79209 | 37386 ft | 390 kts | 68° |
| 2026-04-30 08:10 | 50.33558 | 7.87167 | 37393 ft | 390 kts | 68° |
| 2026-04-30 08:10 | 50.35429 | 7.95070 | 37398 ft | 389 kts | 68° |
| 2026-04-30 08:11 | 50.37297 | 8.02984 | 37404 ft | 389 kts | 68° |
| 2026-04-30 08:11 | 50.39155 | 8.10884 | 37406 ft | 389 kts | 68° |
| 2026-04-30 08:12 | 50.41013 | 8.18815 | 37408 ft | 389 kts | 68° |
| 2026-04-30 08:12 | 50.42860 | 8.26731 | 37405 ft | 389 kts | 68° |
| 2026-04-30 08:13 | 50.44701 | 8.34640 | 37404 ft | 388 kts | 68° |
| 2026-04-30 08:13 | 50.46535 | 8.42558 | 37405 ft | 388 kts | 68° |
| 2026-04-30 08:14 | 50.48375 | 8.50529 | 37406 ft | 388 kts | 68° |
| 2026-04-30 08:14 | 50.50195 | 8.58443 | 37413 ft | 388 kts | 68° |
| 2026-04-30 08:15 | 50.52011 | 8.66370 | 37418 ft | 388 kts | 68° |
| 2026-04-30 08:15 | 50.53836 | 8.74366 | 37419 ft | 388 kts | 68° |
| 2026-04-30 08:16 | 50.55637 | 8.82282 | 37419 ft | 387 kts | 68° |
| 2026-04-30 08:16 | 50.57440 | 8.90242 | 37423 ft | 388 kts | 68° |
| 2026-04-30 08:17 | 50.59240 | 8.98214 | 37428 ft | 388 kts | 68° |
| 2026-04-30 08:17 | 50.61030 | 9.06180 | 37426 ft | 387 kts | 68° |
| 2026-04-30 08:18 | 50.62815 | 9.14143 | 37424 ft | 388 kts | 68° |
| 2026-04-30 08:18 | 50.64592 | 9.22103 | 37415 ft | 387 kts | 68° |
| 2026-04-30 08:19 | 50.66367 | 9.30090 | 37416 ft | 387 kts | 68° |
| 2026-04-30 08:19 | 50.68126 | 9.38031 | 37427 ft | 387 kts | 68° |
| 2026-04-30 08:20 | 50.69891 | 9.46035 | 37426 ft | 387 kts | 68° |
| 2026-04-30 08:20 | 50.71612 | 9.54010 | 37433 ft | 386 kts | 70° |
| 2026-04-30 08:21 | 50.72919 | 9.62243 | 37434 ft | 389 kts | 75° |
| 2026-04-30 08:21 | 50.73695 | 9.70659 | 37438 ft | 391 kts | 79° |
| 2026-04-30 08:22 | 50.74319 | 9.79136 | 37441 ft | 391 kts | 79° |
| 2026-04-30 08:22 | 50.74937 | 9.87631 | 37442 ft | 391 kts | 79° |
| 2026-04-30 08:23 | 50.75549 | 9.96152 | 37445 ft | 391 kts | 79° |
| 2026-04-30 08:23 | 50.76150 | 10.04639 | 37439 ft | 391 kts | 79° |
| 2026-04-30 08:24 | 50.76746 | 10.13141 | 37438 ft | 391 kts | 79° |
| 2026-04-30 08:24 | 50.77336 | 10.21620 | 37434 ft | 390 kts | 79° |
| 2026-04-30 08:25 | 50.77923 | 10.30123 | 37435 ft | 390 kts | 79° |
| 2026-04-30 08:25 | 50.78499 | 10.38599 | 37436 ft | 390 kts | 79° |
| 2026-04-30 08:26 | 50.79069 | 10.47074 | 37441 ft | 389 kts | 79° |
| 2026-04-30 08:26 | 50.79631 | 10.55530 | 37440 ft | 389 kts | 79° |
| 2026-04-30 08:27 | 50.80309 | 10.63998 | 37439 ft | 387 kts | 75° |
| 2026-04-30 08:27 | 50.81540 | 10.72197 | 37427 ft | 384 kts | 69° |
| 2026-04-30 08:28 | 50.83349 | 10.80077 | 37437 ft | 381 kts | 63° |
| 2026-04-30 08:28 | 50.85668 | 10.87533 | 37458 ft | 379 kts | 59° |
| 2026-04-30 08:29 | 50.88132 | 10.94848 | 37472 ft | 378 kts | 59° |
| 2026-04-30 08:29 | 50.90610 | 11.02205 | 37480 ft | 378 kts | 59° |
| 2026-04-30 08:30 | 50.93062 | 11.09507 | 37479 ft | 379 kts | 59° |
| 2026-04-30 08:30 | 50.95531 | 11.16878 | 37482 ft | 379 kts | 59° |
| 2026-04-30 08:31 | 50.97977 | 11.24208 | 37482 ft | 378 kts | 59° |
| 2026-04-30 08:31 | 51.00421 | 11.31563 | 37479 ft | 378 kts | 59° |